sensor_id;sensor_type;location;lat;lon;timestamp;P1;durP1;ratioP1;P2;durP2;ratioP2
990;SDS011;484;48.128;11.602;2023-02-12T17:32:37;12.97;;;7.70;;
990;SDS011;484;48.128;11.602;2023-02-12T17:35:23;7.57;;;6.10;;
990;SDS011;484;48.128;11.602;2023-02-12T17:38:10;9.83;;;5.43;;
990;SDS011;484;48.128;11.602;2023-02-12T17:40:55;11.93;;;7.90;;
990;SDS011;484;48.128;11.602;2023-02-12T17:43:40;9.97;;;8.13;;
990;SDS011;484;48.128;11.602;2023-02-12T17:46:26;10.67;;;7.00;;
990;SDS011;484;48.128;11.602;2023-02-12T17:49:13;9.53;;;6.90;;
990;SDS011;484;48.128;11.602;2023-02-12T17:51:59;9.60;;;6.03;;
990;SDS011;484;48.128;11.602;2023-02-12T17:54:44;13.80;;;7.43;;
990;SDS011;484;48.128;11.602;2023-02-12T17:57:30;15.77;;;9.93;;
990;SDS011;484;48.128;11.602;2023-02-12T18:00:16;11.80;;;8.40;;
990;SDS011;484;48.128;11.602;2023-02-12T18:03:02;16.07;;;10.47;;
990;SDS011;484;48.128;11.602;2023-02-12T18:05:48;21.67;;;13.30;;
990;SDS011;484;48.128;11.602;2023-02-12T18:08:34;17.40;;;7.60;;
990;SDS011;484;48.128;11.602;2023-02-12T18:11:19;9.77;;;7.37;;
990;SDS011;484;48.128;11.602;2023-02-12T18:14:05;9.30;;;6.53;;
990;SDS011;484;48.128;11.602;2023-02-12T18:16:50;16.90;;;8.07;;
990;SDS011;484;48.128;11.602;2023-02-12T18:19:36;10.10;;;6.30;;
990;SDS011;484;48.128;11.602;2023-02-12T18:22:23;12.00;;;7.60;;
990;SDS011;484;48.128;11.602;2023-02-12T18:25:08;17.77;;;9.83;;
990;SDS011;484;48.128;11.602;2023-02-12T18:27:54;14.50;;;7.37;;
990;SDS011;484;48.128;11.602;2023-02-12T18:30:39;13.77;;;8.87;;
990;SDS011;484;48.128;11.602;2023-02-12T18:33:26;9.60;;;7.40;;
990;SDS011;484;48.128;11.602;2023-02-12T18:36:12;11.77;;;9.00;;
990;SDS011;484;48.128;11.602;2023-02-12T18:39:01;10.77;;;6.33;;
990;SDS011;484;48.128;11.602;2023-02-12T18:41:47;15.00;;;9.67;;
990;SDS011;484;48.128;11.602;2023-02-12T18:44:32;9.60;;;5.87;;
990;SDS011;484;48.128;11.602;2023-02-12T18:47:17;13.77;;;8.37;;
990;SDS011;484;48.128;11.602;2023-02-12T18:50:03;14.30;;;8.60;;
990;SDS011;484;48.128;11.602;2023-02-12T18:52:49;14.17;;;7.90;;
990;SDS011;484;48.128;11.602;2023-02-12T18:55:37;20.10;;;11.37;;
990;SDS011;484;48.128;11.602;2023-02-12T18:58:23;12.10;;;8.57;;
990;SDS011;484;48.128;11.602;2023-02-12T19:01:12;15.90;;;9.33;;
990;SDS011;484;48.128;11.602;2023-02-12T19:03:58;8.07;;;7.27;;
990;SDS011;484;48.128;11.602;2023-02-12T19:06:45;15.57;;;8.67;;
990;SDS011;484;48.128;11.602;2023-02-12T19:09:31;8.43;;;7.63;;
990;SDS011;484;48.128;11.602;2023-02-12T19:12:20;15.33;;;10.30;;
990;SDS011;484;48.128;11.602;2023-02-12T19:15:09;17.27;;;10.47;;
990;SDS011;484;48.128;11.602;2023-02-12T19:17:56;14.27;;;7.90;;
990;SDS011;484;48.128;11.602;2023-02-12T19:20:42;14.60;;;12.73;;
990;SDS011;484;48.128;11.602;2023-02-12T19:23:29;15.67;;;8.67;;
990;SDS011;484;48.128;11.602;2023-02-12T19:26:15;16.80;;;10.00;;
990;SDS011;484;48.128;11.602;2023-02-12T19:29:04;16.10;;;8.53;;
990;SDS011;484;48.128;11.602;2023-02-12T19:31:49;12.43;;;9.33;;
990;SDS011;484;48.128;11.602;2023-02-12T19:34:35;19.83;;;10.73;;
990;SDS011;484;48.128;11.602;2023-02-12T19:37:20;17.73;;;9.00;;
990;SDS011;484;48.128;11.602;2023-02-12T19:40:07;10.67;;;9.00;;
990;SDS011;484;48.128;11.602;2023-02-12T19:42:53;12.80;;;7.20;;
990;SDS011;484;48.128;11.602;2023-02-12T19:45:40;8.93;;;7.83;;
990;SDS011;484;48.128;11.602;2023-02-12T19:48:25;10.43;;;8.27;;
990;SDS011;484;48.128;11.602;2023-02-12T19:51:11;12.10;;;9.60;;
990;SDS011;484;48.128;11.602;2023-02-12T19:54:01;10.43;;;7.07;;
990;SDS011;484;48.128;11.602;2023-02-12T19:56:47;12.00;;;6.90;;
990;SDS011;484;48.128;11.602;2023-02-12T19:59:33;12.50;;;8.17;;
990;SDS011;484;48.128;11.602;2023-02-12T20:02:21;12.17;;;8.97;;
990;SDS011;484;48.128;11.602;2023-02-12T20:05:07;15.53;;;8.80;;
990;SDS011;484;48.128;11.602;2023-02-12T20:08:01;12.97;;;8.50;;
990;SDS011;484;48.128;11.602;2023-02-12T20:10:46;8.07;;;7.40;;
990;SDS011;484;48.128;11.602;2023-02-12T20:13:32;14.97;;;7.40;;
990;SDS011;484;48.128;11.602;2023-02-12T20:16:23;12.77;;;9.50;;
990;SDS011;484;48.128;11.602;2023-02-12T20:19:16;13.60;;;8.73;;
990;SDS011;484;48.128;11.602;2023-02-12T20:22:02;16.03;;;9.63;;
990;SDS011;484;48.128;11.602;2023-02-12T20:24:48;12.27;;;8.47;;
990;SDS011;484;48.128;11.602;2023-02-12T20:27:33;15.47;;;10.40;;
990;SDS011;484;48.128;11.602;2023-02-12T20:30:19;9.97;;;8.40;;
990;SDS011;484;48.128;11.602;2023-02-12T20:33:05;11.37;;;6.40;;
990;SDS011;484;48.128;11.602;2023-02-12T20:35:55;10.97;;;6.80;;
990;SDS011;484;48.128;11.602;2023-02-12T20:38:44;9.53;;;5.43;;
990;SDS011;484;48.128;11.602;2023-02-12T20:41:29;14.77;;;8.57;;
990;SDS011;484;48.128;11.602;2023-02-12T20:44:20;10.30;;;6.07;;
990;SDS011;484;48.128;11.602;2023-02-12T20:47:05;13.10;;;7.67;;
990;SDS011;484;48.128;11.602;2023-02-12T20:49:54;11.80;;;6.67;;
990;SDS011;484;48.128;11.602;2023-02-12T20:52:58;10.90;;;7.73;;
990;SDS011;484;48.128;11.602;2023-02-12T20:55:51;14.73;;;9.47;;
990;SDS011;484;48.128;11.602;2023-02-12T20:58:40;10.10;;;7.23;;
990;SDS011;484;48.128;11.602;2023-02-12T21:01:28;12.00;;;7.60;;
990;SDS011;484;48.128;11.602;2023-02-12T21:04:16;11.60;;;6.90;;
990;SDS011;484;48.128;11.602;2023-02-12T21:07:02;12.10;;;6.47;;
990;SDS011;484;48.128;11.602;2023-02-12T21:09:49;6.97;;;6.27;;
990;SDS011;484;48.128;11.602;2023-02-12T21:12:35;6.90;;;5.90;;
990;SDS011;484;48.128;11.602;2023-02-12T21:15:20;8.90;;;5.50;;
990;SDS011;484;48.128;11.602;2023-02-12T21:18:06;9.00;;;6.43;;
990;SDS011;484;48.128;11.602;2023-02-12T21:20:53;9.53;;;6.93;;
990;SDS011;484;48.128;11.602;2023-02-12T21:23:44;9.27;;;7.10;;
990;SDS011;484;48.128;11.602;2023-02-12T21:26:31;7.33;;;6.00;;
990;SDS011;484;48.128;11.602;2023-02-12T21:29:20;7.67;;;4.67;;
990;SDS011;484;48.128;11.602;2023-02-12T21:32:06;12.30;;;7.33;;
990;SDS011;484;48.128;11.602;2023-02-12T21:34:52;8.80;;;4.00;;
990;SDS011;484;48.128;11.602;2023-02-12T21:37:37;6.83;;;6.10;;
990;SDS011;484;48.128;11.602;2023-02-12T21:40:22;6.60;;;6.00;;
990;SDS011;484;48.128;11.602;2023-02-12T21:43:09;8.03;;;6.27;;
990;SDS011;484;48.128;11.602;2023-02-12T21:45:55;13.40;;;7.60;;
990;SDS011;484;48.128;11.602;2023-02-12T21:48:40;5.97;;;5.47;;
990;SDS011;484;48.128;11.602;2023-02-12T21:51:28;7.27;;;4.80;;
990;SDS011;484;48.128;11.602;2023-02-12T21:54:14;8.83;;;7.57;;
990;SDS011;484;48.128;11.602;2023-02-12T21:57:00;8.90;;;5.40;;
990;SDS011;484;48.128;11.602;2023-02-12T21:59:47;7.33;;;6.27;;
990;SDS011;484;48.128;11.602;2023-02-12T22:02:32;7.20;;;4.87;;
990;SDS011;484;48.128;11.602;2023-02-12T22:05:18;13.00;;;8.07;;
990;SDS011;484;48.128;11.602;2023-02-12T22:08:03;5.83;;;5.27;;
990;SDS011;484;48.128;11.602;2023-02-12T22:10:49;5.43;;;4.87;;
990;SDS011;484;48.128;11.602;2023-02-12T22:13:34;8.90;;;5.13;;
990;SDS011;484;48.128;11.602;2023-02-12T22:16:24;5.80;;;4.47;;
990;SDS011;484;48.128;11.602;2023-02-12T22:19:11;7.10;;;5.07;;
990;SDS011;484;48.128;11.602;2023-02-12T22:21:58;4.80;;;4.43;;
990;SDS011;484;48.128;11.602;2023-02-12T22:24:43;6.13;;;5.13;;
990;SDS011;484;48.128;11.602;2023-02-12T22:27:29;14.70;;;5.47;;
990;SDS011;484;48.128;11.602;2023-02-12T22:30:15;6.90;;;6.33;;
990;SDS011;484;48.128;11.602;2023-02-12T22:33:02;6.37;;;4.83;;
990;SDS011;484;48.128;11.602;2023-02-12T22:35:47;5.43;;;4.13;;
990;SDS011;484;48.128;11.602;2023-02-12T22:38:32;7.50;;;4.17;;
990;SDS011;484;48.128;11.602;2023-02-12T22:41:18;7.80;;;7.00;;
990;SDS011;484;48.128;11.602;2023-02-12T22:44:04;7.13;;;4.50;;
990;SDS011;484;48.128;11.602;2023-02-12T22:46:49;6.87;;;4.03;;
990;SDS011;484;48.128;11.602;2023-02-12T22:49:36;9.20;;;4.83;;
990;SDS011;484;48.128;11.602;2023-02-12T22:52:22;7.07;;;5.73;;
990;SDS011;484;48.128;11.602;2023-02-12T22:55:08;6.77;;;6.07;;
990;SDS011;484;48.128;11.602;2023-02-12T22:57:53;4.87;;;4.47;;
990;SDS011;484;48.128;11.602;2023-02-12T23:00:39;5.20;;;4.47;;
990;SDS011;484;48.128;11.602;2023-02-12T23:03:24;6.13;;;5.63;;
990;SDS011;484;48.128;11.602;2023-02-12T23:06:11;6.67;;;6.00;;
990;SDS011;484;48.128;11.602;2023-02-12T23:08:59;2.87;;;2.67;;
990;SDS011;484;48.128;11.602;2023-02-12T23:11:45;6.13;;;4.53;;
990;SDS011;484;48.128;11.602;2023-02-12T23:14:31;5.30;;;3.83;;
990;SDS011;484;48.128;11.602;2023-02-12T23:17:18;5.57;;;5.07;;
990;SDS011;484;48.128;11.602;2023-02-12T23:20:04;10.93;;;4.50;;
990;SDS011;484;48.128;11.602;2023-02-12T23:22:51;4.80;;;4.17;;
990;SDS011;484;48.128;11.602;2023-02-12T23:25:36;6.03;;;5.57;;
990;SDS011;484;48.128;11.602;2023-02-12T23:28:22;8.80;;;4.90;;
990;SDS011;484;48.128;11.602;2023-02-12T23:31:07;8.50;;;4.83;;
990;SDS011;484;48.128;11.602;2023-02-12T23:33:52;6.23;;;5.27;;
990;SDS011;484;48.128;11.602;2023-02-12T23:36:37;8.10;;;6.10;;
990;SDS011;484;48.128;11.602;2023-02-12T23:39:24;7.63;;;4.70;;
990;SDS011;484;48.128;11.602;2023-02-12T23:42:10;5.70;;;4.67;;
990;SDS011;484;48.128;11.602;2023-02-12T23:44:55;6.97;;;5.60;;
990;SDS011;484;48.128;11.602;2023-02-12T23:47:40;6.60;;;6.00;;
990;SDS011;484;48.128;11.602;2023-02-12T23:50:25;14.47;;;6.13;;
990;SDS011;484;48.128;11.602;2023-02-12T23:53:11;7.77;;;5.63;;
990;SDS011;484;48.128;11.602;2023-02-12T23:55:58;8.03;;;6.77;;
990;SDS011;484;48.128;11.602;2023-02-12T23:58:43;6.00;;;4.53;;
